KFAF

Details ICAO KFAF (FAF)
Name FELKER AAF
Region United States
Timezone America/New_York (UTC-5.0)
Plans Departing 1
Arriving 1
Stats Elevation 12 ft / 4 m (AMSL)
Location 37.132455° -76.608982°
Runways 1
Magnetic Variation 10.722° W
Sunrise 2017-12-13 12:13:00 UTC / 2017-12-13 07:13:00 Local
Sunset 2017-12-13 21:51:18 UTC / 2017-12-13 16:51:18 Local
Advertisement - Login to hide

Runways

ID Width Length Bearing (true) Bearing (mag) Surface Threshold Offset Overrun Length
14 75 ft / 23 m 3,153 ft / 961 m 126.68° 137.40° Asphalt 0 ft / 0 m 0 ft / 0 m
32 75 ft / 23 m 3,153 ft / 961 m 306.68° 317.40° Asphalt 0 ft / 0 m 0 ft / 0 m

Map

Weather


0- 5 10 15 20 25 30 35+ Temperature / ° C

Clouds and Precipitation
Forecast for 2017-12-14 00:00 UTC. Updated a few seconds ago

Ground ~20,000 ft ~40,000 ft Winds

METAR

KFAF 131856Z AUTO 27010G17KT 10SM CLR 02/M14 A2982 RMK AO2 SLP101 T00241138 $

TAF

TAF KFAF 131900Z 1319/1501 26012G18KT 9999 FEW150 QNH2980INS BECMG 1321/1322 22009KT 9999 BKN070 620708 QNH2972INS BECMG 1403/1404 22009KT 9999 FEW050 WS020/23045KT QNH2961INS BECMG 1414/1415 29012KT 9999 FEW150 QNH2978INS WND VRB06KT AFT 1423 TX07/1418Z TN01/1319Z LAST NO AMDS AFT 1404 NEXT 1411

Frequencies

Unicom 126.30 MHz CTAF
Tower 126.30 MHz TWR
Ground 121.35 MHz GND
Approach 125.70 MHz NORFOLK APP/DEP
Warning: Do not use this data for real-world aviation or navigation. No guarantee of current accuracy is given.